createdAt,value
2022-09-21T00:00:44.105Z,1018.45
2022-09-21T00:01:44.079Z,1018.52
2022-09-21T00:02:44.066Z,1018.48
2022-09-21T00:03:44.043Z,1018.48
2022-09-21T00:04:44.050Z,1018.48
2022-09-21T00:05:44.051Z,1018.54
2022-09-21T00:06:44.020Z,1018.53
2022-09-21T00:07:44.001Z,1018.56
2022-09-21T00:08:44.004Z,1018.55
2022-09-21T00:09:43.979Z,1018.55
2022-09-21T00:10:43.998Z,1018.59
2022-09-21T00:11:43.959Z,1018.61
2022-09-21T00:12:43.952Z,1018.64
2022-09-21T00:13:43.946Z,1018.64
2022-09-21T00:14:43.933Z,1018.60
2022-09-21T00:15:43.995Z,1018.61
2022-09-21T00:16:43.925Z,1018.62
2022-09-21T00:17:43.902Z,1018.64
2022-09-21T00:18:43.889Z,1018.63
2022-09-21T00:19:43.888Z,1018.64
2022-09-21T00:20:43.856Z,1018.65
2022-09-21T00:21:43.920Z,1018.66
2022-09-21T00:22:43.848Z,1018.63
2022-09-21T00:23:43.834Z,1018.63
2022-09-21T00:24:43.820Z,1018.64
2022-09-21T00:25:43.805Z,1018.61
2022-09-21T00:26:43.809Z,1018.64
2022-09-21T00:27:43.790Z,1018.60
2022-09-21T00:28:43.824Z,1018.61
2022-09-21T00:29:43.764Z,1018.60
2022-09-21T00:30:43.753Z,1018.59
2022-09-21T00:31:43.820Z,1018.58
2022-09-21T00:32:43.747Z,1018.65
2022-09-21T00:33:43.760Z,1018.60
2022-09-21T00:34:43.707Z,1018.61
2022-09-21T00:35:43.719Z,1018.63
2022-09-21T00:36:43.727Z,1018.63
2022-09-21T00:37:43.680Z,1018.65
2022-09-21T00:38:43.655Z,1018.66
2022-09-21T00:39:43.650Z,1018.65
2022-09-21T00:40:43.640Z,1018.66
2022-09-21T00:41:43.632Z,1018.68
2022-09-21T00:42:43.619Z,1018.65
2022-09-21T00:43:43.616Z,1018.73
2022-09-21T00:44:43.591Z,1018.71
2022-09-21T00:45:43.610Z,1018.68
2022-09-21T00:46:43.594Z,1018.71
2022-09-21T00:47:43.576Z,1018.72
2022-09-21T00:48:43.551Z,1018.72
2022-09-21T00:49:43.524Z,1018.71
2022-09-21T00:50:43.528Z,1018.73
2022-09-21T00:51:43.582Z,1018.73
2022-09-21T00:52:43.499Z,1018.77
2022-09-21T00:53:43.495Z,1018.74
2022-09-21T00:54:43.489Z,1018.72
2022-09-21T00:55:43.487Z,1018.74
2022-09-21T00:56:43.467Z,1018.71
2022-09-21T00:57:43.441Z,1018.73
2022-09-21T00:58:43.433Z,1018.71
2022-09-21T00:59:43.454Z,1018.73
2022-09-21T01:00:43.488Z,1018.72
2022-09-21T01:01:43.501Z,1018.69
2022-09-21T01:02:43.390Z,1018.72
2022-09-21T01:03:43.386Z,1018.70
2022-09-21T01:04:43.384Z,1018.71
2022-09-21T01:05:43.350Z,1018.68
2022-09-21T01:06:43.368Z,1018.71
2022-09-21T01:07:43.366Z,1018.70
2022-09-21T01:08:43.323Z,1018.72
2022-09-21T01:09:43.310Z,1018.69
2022-09-21T01:10:43.300Z,1018.72
2022-09-21T01:11:43.312Z,1018.71
2022-09-21T01:12:43.284Z,1018.74
2022-09-21T01:13:43.257Z,1018.68
2022-09-21T01:14:43.252Z,1018.70
2022-09-21T01:15:43.261Z,1018.68
2022-09-21T01:16:43.298Z,1018.73
2022-09-21T01:17:43.238Z,1018.71
2022-09-21T01:18:43.220Z,1018.65
2022-09-21T01:19:43.219Z,1018.69
2022-09-21T01:20:43.183Z,1018.68
2022-09-21T01:21:43.226Z,1018.70
2022-09-21T01:22:43.165Z,1018.75
2022-09-21T01:23:43.152Z,1018.76
2022-09-21T01:24:43.186Z,1018.77
2022-09-21T01:25:43.135Z,1018.75
2022-09-21T01:26:43.130Z,1018.80
2022-09-21T01:27:43.107Z,1018.78
2022-09-21T01:28:43.095Z,1018.86
2022-09-21T01:29:43.089Z,1018.82
2022-09-21T01:30:48.236Z,1018.84
2022-09-21T01:31:44.133Z,1018.87
2022-09-21T01:32:43.044Z,1018.83
2022-09-21T01:33:43.048Z,1018.85
2022-09-21T01:34:43.034Z,1018.85
2022-09-21T01:35:43.080Z,1018.85
2022-09-21T01:36:43.025Z,1018.87
2022-09-21T01:37:43.016Z,1018.86
2022-09-21T01:38:42.983Z,1018.88
2022-09-21T01:39:42.975Z,1018.89
2022-09-21T01:40:42.984Z,1018.91
2022-09-21T01:41:43.150Z,1018.91
2022-09-21T01:42:42.945Z,1018.91
2022-09-21T01:43:42.926Z,1018.93
2022-09-21T01:44:42.907Z,1018.94
2022-09-21T01:45:42.972Z,1018.93
2022-09-21T01:46:42.917Z,1018.87
2022-09-21T01:47:42.895Z,1018.89
2022-09-21T01:48:42.900Z,1018.85
2022-09-21T01:49:42.860Z,1018.86
2022-09-21T01:50:42.864Z,1018.84
2022-09-21T01:51:42.880Z,1018.91
2022-09-21T01:52:42.822Z,1018.90
2022-09-21T01:53:42.821Z,1018.86
2022-09-21T01:54:42.799Z,1018.89
2022-09-21T01:55:42.807Z,1018.88
2022-09-21T01:56:42.802Z,1018.84
2022-09-21T01:57:42.774Z,1018.85
2022-09-21T01:58:42.753Z,1018.88
2022-09-21T01:59:42.752Z,1018.86
2022-09-21T02:00:42.802Z,1018.87
2022-09-21T02:01:42.830Z,1018.87
2022-09-21T02:02:42.751Z,1018.89
2022-09-21T02:03:42.696Z,1018.91
2022-09-21T02:04:42.688Z,1018.89
2022-09-21T02:05:42.699Z,1018.93
2022-09-21T02:06:42.679Z,1018.89
2022-09-21T02:07:42.670Z,1018.89
2022-09-21T02:08:42.635Z,1018.87
2022-09-21T02:09:42.688Z,1018.91
2022-09-21T02:10:42.616Z,1018.84
2022-09-21T02:11:42.635Z,1018.84
2022-09-21T02:12:42.607Z,1018.86
2022-09-21T02:13:42.583Z,1018.86
2022-09-21T02:14:42.588Z,1018.87
2022-09-21T02:15:42.561Z,1018.87
2022-09-21T02:16:42.576Z,1018.89
2022-09-21T02:17:42.548Z,1018.89
2022-09-21T02:18:42.573Z,1018.88
2022-09-21T02:19:42.511Z,1018.88
2022-09-21T02:20:42.518Z,1018.89
2022-09-21T02:21:42.509Z,1018.87
2022-09-21T02:22:42.503Z,1018.85
2022-09-21T02:23:42.490Z,1018.88
2022-09-21T02:24:42.469Z,1018.87
2022-09-21T02:25:42.455Z,1018.84
2022-09-21T02:26:42.461Z,1018.90
2022-09-21T02:27:42.424Z,1018.93
2022-09-21T02:28:42.502Z,1018.89
2022-09-21T02:29:42.413Z,1018.91
2022-09-21T02:30:42.391Z,1018.90
2022-09-21T02:31:42.477Z,1018.91
2022-09-21T02:32:42.374Z,1018.93
2022-09-21T02:33:42.361Z,1018.92
2022-09-21T02:34:42.352Z,1018.91
2022-09-21T02:35:42.346Z,1018.90
2022-09-21T02:36:42.352Z,1018.91
2022-09-21T02:37:42.372Z,1018.90
2022-09-21T02:38:42.297Z,1018.91
2022-09-21T02:39:42.312Z,1018.93
2022-09-21T02:40:42.290Z,1018.94
2022-09-21T02:41:42.300Z,1018.96
2022-09-21T02:42:42.261Z,1018.93
2022-09-21T02:43:42.241Z,1018.94
2022-09-21T02:44:42.229Z,1018.96
2022-09-21T02:45:42.230Z,1018.96
2022-09-21T02:46:42.301Z,1018.98
2022-09-21T02:47:42.196Z,1018.93
2022-09-21T02:48:42.183Z,1018.91
2022-09-21T02:49:42.179Z,1018.89
2022-09-21T02:50:42.154Z,1018.98
2022-09-21T02:51:42.172Z,1018.96
2022-09-21T02:52:42.178Z,1018.96
2022-09-21T02:53:42.133Z,1018.93
2022-09-21T02:54:42.128Z,1018.98
2022-09-21T02:55:42.121Z,1018.97
2022-09-21T02:56:42.213Z,1018.99
2022-09-21T02:57:42.097Z,1019.01
2022-09-21T02:58:42.118Z,1019.01
2022-09-21T02:59:42.082Z,1019.02
2022-09-21T03:00:42.086Z,1019.02
2022-09-21T03:01:42.138Z,1019.04
2022-09-21T03:02:42.038Z,1019.03
2022-09-21T03:03:42.054Z,1019.01
2022-09-21T03:04:42.018Z,1019.08
2022-09-21T03:05:41.992Z,1019.07
2022-09-21T03:06:42.005Z,1019.04
2022-09-21T03:07:41.973Z,1019.05
2022-09-21T03:08:41.960Z,1019.07
2022-09-21T03:09:41.947Z,1019.12
2022-09-21T03:10:41.970Z,1019.15
2022-09-21T03:11:41.957Z,1019.11
2022-09-21T03:12:41.914Z,1019.14
2022-09-21T03:13:41.930Z,1019.15
2022-09-21T03:14:41.915Z,1019.15
2022-09-21T03:15:41.933Z,1019.19
2022-09-21T03:16:41.893Z,1019.16
2022-09-21T03:17:41.876Z,1019.24
2022-09-21T03:18:41.861Z,1019.21
2022-09-21T03:19:41.835Z,1019.23
2022-09-21T03:20:41.831Z,1019.21
2022-09-21T03:21:44.634Z,1019.22
2022-09-21T03:22:41.808Z,1019.22
2022-09-21T03:23:41.797Z,1019.24
2022-09-21T03:24:41.814Z,1019.24
2022-09-21T03:25:41.794Z,1019.21
2022-09-21T03:26:41.774Z,1019.17
2022-09-21T03:27:41.759Z,1019.16
2022-09-21T03:28:41.767Z,1019.16
2022-09-21T03:29:41.724Z,1019.13
2022-09-21T03:30:41.708Z,1019.19
2022-09-21T03:31:41.724Z,1019.16
2022-09-21T03:32:41.715Z,1019.15
2022-09-21T03:33:41.695Z,1019.18
2022-09-21T03:34:41.670Z,1019.13
2022-09-21T03:35:41.658Z,1019.19
2022-09-21T03:36:41.666Z,1019.15
2022-09-21T03:37:41.641Z,1019.17
2022-09-21T03:38:41.615Z,1019.15
2022-09-21T03:39:41.605Z,1019.17
2022-09-21T03:40:41.610Z,1019.19
2022-09-21T03:41:41.602Z,1019.18
2022-09-21T03:42:41.569Z,1019.17
2022-09-21T03:43:41.602Z,1019.18
2022-09-21T03:44:41.552Z,1019.15
2022-09-21T03:45:41.540Z,1019.21
2022-09-21T03:46:41.590Z,1019.22
2022-09-21T03:47:41.523Z,1019.16
2022-09-21T03:48:41.510Z,1019.20
2022-09-21T03:49:41.495Z,1019.19
2022-09-21T03:50:41.483Z,1019.22
2022-09-21T03:51:41.497Z,1019.27
2022-09-21T03:52:41.453Z,1019.27
2022-09-21T03:53:41.450Z,1019.22
2022-09-21T03:54:41.450Z,1019.17
2022-09-21T03:55:41.432Z,1019.19
2022-09-21T03:56:41.445Z,1019.23
2022-09-21T03:57:41.420Z,1019.21
2022-09-21T03:58:41.395Z,1019.22
2022-09-21T03:59:41.393Z,1019.18
2022-09-21T04:00:41.377Z,1019.23
2022-09-21T04:01:41.478Z,1019.24
2022-09-21T04:02:41.462Z,1019.26
2022-09-21T04:03:41.346Z,1019.21
2022-09-21T04:04:41.339Z,1019.24
2022-09-21T04:05:41.321Z,1019.24
2022-09-21T04:06:41.335Z,1019.26
2022-09-21T04:07:41.292Z,1019.23
2022-09-21T04:08:43.648Z,1019.26
2022-09-21T04:09:41.279Z,1019.29
2022-09-21T04:10:41.361Z,1019.30
2022-09-21T04:11:41.267Z,1019.33
2022-09-21T04:12:41.245Z,1019.30
2022-09-21T04:13:41.284Z,1019.40
2022-09-21T04:14:41.216Z,1019.37
2022-09-21T04:15:41.273Z,1019.40
2022-09-21T04:16:41.211Z,1019.36
2022-09-21T04:17:41.184Z,1019.38
2022-09-21T04:18:41.173Z,1019.38
2022-09-21T04:19:41.157Z,1019.35
2022-09-21T04:20:41.153Z,1019.36
2022-09-21T04:21:41.171Z,1019.40
2022-09-21T04:22:43.551Z,1019.41
2022-09-21T04:23:41.146Z,1019.39
2022-09-21T04:24:41.104Z,1019.39
2022-09-21T04:25:41.204Z,1019.42
2022-09-21T04:26:41.111Z,1019.37
2022-09-21T04:27:41.062Z,1019.38
2022-09-21T04:28:41.050Z,1019.36
2022-09-21T04:29:41.110Z,1019.38
2022-09-21T04:30:41.122Z,1019.34
2022-09-21T04:31:41.199Z,1019.29
2022-09-21T04:32:41.001Z,1019.32
2022-09-21T04:33:40.996Z,1019.34
2022-09-21T04:34:41.016Z,1019.34
2022-09-21T04:35:40.982Z,1019.32
2022-09-21T04:36:40.991Z,1019.29
2022-09-21T04:37:40.957Z,1019.22
2022-09-21T04:38:40.944Z,1019.30
2022-09-21T04:39:40.945Z,1019.27
2022-09-21T04:40:40.932Z,1019.26
2022-09-21T04:41:40.931Z,1019.26
2022-09-21T04:42:40.904Z,1019.26
2022-09-21T04:43:40.881Z,1019.27
2022-09-21T04:44:40.892Z,1019.30
2022-09-21T04:45:40.864Z,1019.28
2022-09-21T04:46:41.016Z,1019.27
2022-09-21T04:47:40.859Z,1019.30
2022-09-21T04:48:40.851Z,1019.32
2022-09-21T04:49:40.814Z,1019.34
2022-09-21T04:50:40.803Z,1019.31
2022-09-21T04:51:40.801Z,1019.34
2022-09-21T04:52:40.785Z,1019.36
2022-09-21T04:53:40.768Z,1019.36
2022-09-21T04:54:40.779Z,1019.39
2022-09-21T04:55:40.752Z,1019.44
2022-09-21T04:56:40.745Z,1019.43
2022-09-21T04:57:40.724Z,1019.42
2022-09-21T04:58:40.726Z,1019.43
2022-09-21T04:59:40.708Z,1019.46
2022-09-21T05:00:40.760Z,1019.47
2022-09-21T05:01:40.750Z,1019.43
2022-09-21T05:02:40.682Z,1019.46
2022-09-21T05:03:40.842Z,1019.46
2022-09-21T05:04:40.657Z,1019.47
2022-09-21T05:05:40.700Z,1019.47
2022-09-21T05:06:40.658Z,1019.47
2022-09-21T05:07:40.615Z,1019.49
2022-09-21T05:08:40.612Z,1019.53
2022-09-21T05:09:40.594Z,1019.52
2022-09-21T05:10:40.669Z,1019.51
2022-09-21T05:11:40.601Z,1019.54
2022-09-21T05:12:41.234Z,1019.50
2022-09-21T05:13:40.570Z,1019.53
2022-09-21T05:14:40.531Z,1019.53
2022-09-21T05:15:40.555Z,1019.58
2022-09-21T05:16:40.561Z,1019.54
2022-09-21T05:17:40.498Z,1019.56
2022-09-21T05:18:40.484Z,1019.58
2022-09-21T05:19:41.353Z,1019.58
2022-09-21T05:20:40.476Z,1019.62
2022-09-21T05:21:40.472Z,1019.63
2022-09-21T05:22:40.441Z,1019.63
2022-09-21T05:23:40.435Z,1019.65
2022-09-21T05:24:40.415Z,1019.64
2022-09-21T05:25:40.409Z,1019.67
2022-09-21T05:26:40.410Z,1019.69
2022-09-21T05:27:40.392Z,1019.70
2022-09-21T05:28:40.536Z,1019.71
2022-09-21T05:29:40.360Z,1019.73
2022-09-21T05:30:47.804Z,1019.76
2022-09-21T05:31:41.460Z,1019.78
2022-09-21T05:32:40.327Z,1019.77
2022-09-21T05:33:40.317Z,1019.76
2022-09-21T05:34:40.305Z,1019.81
2022-09-21T05:35:40.315Z,1019.77
2022-09-21T05:36:40.294Z,1019.80
2022-09-21T05:37:40.271Z,1019.81
2022-09-21T05:38:40.266Z,1019.76
2022-09-21T05:39:40.249Z,1019.78
2022-09-21T05:40:40.284Z,1019.80
2022-09-21T05:41:40.243Z,1019.86
2022-09-21T05:42:40.215Z,1019.85
2022-09-21T05:43:40.202Z,1019.82
2022-09-21T05:44:40.191Z,1019.83
2022-09-21T05:45:42.778Z,1019.86
2022-09-21T05:46:40.185Z,1019.86
2022-09-21T05:47:40.156Z,1019.86
2022-09-21T05:48:40.148Z,1019.79
2022-09-21T05:49:40.136Z,1019.82
2022-09-21T05:50:40.120Z,1019.87
2022-09-21T05:51:40.142Z,1019.83
2022-09-21T05:52:40.100Z,1019.88
2022-09-21T05:53:40.084Z,1019.87
2022-09-21T05:54:40.079Z,1019.90
2022-09-21T05:55:40.062Z,1019.86
2022-09-21T05:56:40.081Z,1019.85
2022-09-21T05:57:40.045Z,1019.88
2022-09-21T05:58:40.033Z,1019.84
2022-09-21T05:59:40.030Z,1019.91
2022-09-21T06:00:40.023Z,1019.91
2022-09-21T06:01:40.123Z,1019.88
2022-09-21T06:02:40.025Z,1019.92
2022-09-21T06:03:39.990Z,1019.93
2022-09-21T06:04:39.968Z,1019.94
2022-09-21T06:05:39.958Z,1019.93
2022-09-21T06:06:39.959Z,1019.91
2022-09-21T06:07:39.952Z,1019.93
2022-09-21T06:08:39.927Z,1019.92
2022-09-21T06:09:43.077Z,1019.94
2022-09-21T06:10:39.897Z,1019.90
2022-09-21T06:11:39.899Z,1019.92
2022-09-21T06:12:39.876Z,1019.89
2022-09-21T06:13:39.867Z,1019.88
2022-09-21T06:14:39.855Z,1019.89
2022-09-21T06:15:39.845Z,1019.90
2022-09-21T06:16:39.900Z,1019.95
2022-09-21T06:17:39.818Z,1019.97
2022-09-21T06:18:39.813Z,1019.93
2022-09-21T06:19:39.793Z,1019.98
2022-09-21T06:20:39.783Z,1019.96
2022-09-21T06:21:39.790Z,1019.94
2022-09-21T06:22:39.766Z,1019.93
2022-09-21T06:23:39.767Z,1019.94
2022-09-21T06:24:39.742Z,1019.96
2022-09-21T06:25:39.726Z,1019.99
2022-09-21T06:26:39.739Z,1020.01
2022-09-21T06:27:39.699Z,1020.01
2022-09-21T06:28:39.698Z,1020.02
2022-09-21T06:29:39.681Z,1020.02
2022-09-21T06:30:39.727Z,1020.04
2022-09-21T06:31:39.672Z,1020.03
2022-09-21T06:32:39.642Z,1020.05
2022-09-21T06:33:39.632Z,1020.06
2022-09-21T06:34:39.629Z,1020.05
2022-09-21T06:35:39.608Z,1020.06
2022-09-21T06:36:39.613Z,1020.07
2022-09-21T06:37:39.588Z,1020.07
2022-09-21T06:38:39.574Z,1020.12
2022-09-21T06:39:39.586Z,1020.13
2022-09-21T06:40:39.590Z,1020.08
2022-09-21T06:41:39.560Z,1020.12
2022-09-21T06:42:39.546Z,1020.12
2022-09-21T06:43:39.524Z,1020.12
2022-09-21T06:44:39.537Z,1020.14
2022-09-21T06:45:39.540Z,1020.20
2022-09-21T06:46:39.573Z,1020.16
2022-09-21T06:47:39.488Z,1020.17
2022-09-21T06:48:39.473Z,1020.15
2022-09-21T06:49:42.516Z,1020.18
2022-09-21T06:50:39.443Z,1020.22
2022-09-21T06:51:39.456Z,1020.21
2022-09-21T06:52:39.419Z,1020.22
2022-09-21T06:53:39.404Z,1020.18
2022-09-21T06:54:39.394Z,1020.16
2022-09-21T06:55:39.405Z,1020.19
2022-09-21T06:56:39.421Z,1020.21
2022-09-21T06:57:39.362Z,1020.18
2022-09-21T06:58:39.352Z,1020.14
2022-09-21T06:59:39.339Z,1020.19
2022-09-21T07:00:39.325Z,1020.16
2022-09-21T07:01:39.526Z,1020.18
2022-09-21T07:02:39.305Z,1020.18
2022-09-21T07:03:39.296Z,1020.21
2022-09-21T07:04:39.278Z,1020.21
2022-09-21T07:05:39.268Z,1020.24
2022-09-21T07:06:39.341Z,1020.22
2022-09-21T07:07:39.251Z,1020.22
2022-09-21T07:10:40.211Z,1020.18
2022-09-21T07:11:39.287Z,1020.20
2022-09-21T07:12:39.180Z,1020.22
2022-09-21T07:13:39.181Z,1020.25
2022-09-21T07:14:39.160Z,1020.25
2022-09-21T07:15:39.153Z,1020.27
2022-09-21T07:16:39.272Z,1020.26
2022-09-21T07:17:39.128Z,1020.27
2022-09-21T07:18:43.462Z,1020.30
2022-09-21T07:19:39.111Z,1020.33
2022-09-21T07:20:39.093Z,1020.28
2022-09-21T07:21:39.099Z,1020.26
2022-09-21T07:22:39.071Z,1020.31
2022-09-21T07:23:39.067Z,1020.32
2022-09-21T07:24:39.060Z,1020.31
2022-09-21T07:25:39.036Z,1020.31
2022-09-21T07:26:39.041Z,1020.34
2022-09-21T07:27:39.033Z,1020.30
2022-09-21T07:28:39.027Z,1020.30
2022-09-21T07:29:38.998Z,1020.29
2022-09-21T07:30:38.981Z,1020.30
2022-09-21T07:31:39.030Z,1020.36
2022-09-21T07:32:38.949Z,1020.28
2022-09-21T07:33:38.952Z,1020.36
2022-09-21T07:34:38.929Z,1020.33
2022-09-21T07:35:38.926Z,1020.31
2022-09-21T07:36:38.926Z,1020.30
2022-09-21T07:37:38.895Z,1020.31
2022-09-21T07:38:38.892Z,1020.31
2022-09-21T07:39:38.876Z,1020.32
2022-09-21T07:40:38.903Z,1020.34
2022-09-21T07:41:38.867Z,1020.29
2022-09-21T07:42:38.840Z,1020.28
2022-09-21T07:43:38.855Z,1020.34
2022-09-21T07:44:38.812Z,1020.30
2022-09-21T07:45:38.866Z,1020.29
2022-09-21T07:46:42.779Z,1020.29
2022-09-21T07:47:39.788Z,1020.28
2022-09-21T07:48:38.772Z,1020.31
2022-09-21T07:49:38.756Z,1020.35
2022-09-21T07:50:38.747Z,1020.34
2022-09-21T07:51:38.754Z,1020.37
2022-09-21T07:52:38.731Z,1020.35
2022-09-21T07:53:38.717Z,1020.34
2022-09-21T07:54:38.707Z,1020.36
2022-09-21T07:55:38.693Z,1020.35
2022-09-21T07:56:38.838Z,1020.37
2022-09-21T07:57:38.672Z,1020.36
2022-09-21T07:58:38.665Z,1020.37
2022-09-21T07:59:38.710Z,1020.37
2022-09-21T08:00:38.709Z,1020.33
2022-09-21T08:01:38.642Z,1020.36
2022-09-21T08:02:39.136Z,1020.37
2022-09-21T08:03:38.606Z,1020.39
2022-09-21T08:04:38.590Z,1020.37
2022-09-21T08:05:38.585Z,1020.42
2022-09-21T08:06:38.584Z,1020.39
2022-09-21T08:07:38.558Z,1020.40
2022-09-21T08:08:38.538Z,1020.40
2022-09-21T08:09:38.536Z,1020.41
2022-09-21T08:10:38.534Z,1020.40
2022-09-21T08:11:38.527Z,1020.42
2022-09-21T08:12:38.497Z,1020.43
2022-09-21T08:13:38.496Z,1020.40
2022-09-21T08:14:38.477Z,1020.39
2022-09-21T08:15:49.245Z,1020.50
2022-09-21T08:16:39.538Z,1020.46
2022-09-21T08:17:38.443Z,1020.47
2022-09-21T08:18:38.429Z,1020.44
2022-09-21T08:19:38.421Z,1020.45
2022-09-21T08:20:38.400Z,1020.46
2022-09-21T08:21:38.411Z,1020.45
2022-09-21T08:22:38.380Z,1020.48
2022-09-21T08:23:38.374Z,1020.47
2022-09-21T08:24:38.361Z,1020.51
2022-09-21T08:25:38.353Z,1020.51
2022-09-21T08:26:38.351Z,1020.49
2022-09-21T08:27:38.336Z,1020.49
2022-09-21T08:28:38.329Z,1020.56
2022-09-21T08:29:38.308Z,1020.52
2022-09-21T08:30:38.293Z,1020.53
2022-09-21T08:31:38.551Z,1020.52
2022-09-21T08:32:50.615Z,1020.50
2022-09-21T08:33:39.257Z,1020.49
2022-09-21T08:34:38.252Z,1020.53
2022-09-21T08:35:38.237Z,1020.57
2022-09-21T08:36:38.237Z,1020.57
2022-09-21T08:37:38.220Z,1020.61
2022-09-21T08:38:38.221Z,1020.60
2022-09-21T08:39:38.195Z,1020.59
2022-09-21T08:40:38.249Z,1020.58
2022-09-21T08:41:38.188Z,1020.55
2022-09-21T08:42:38.170Z,1020.57
2022-09-21T08:43:38.148Z,1020.57
2022-09-21T08:44:38.135Z,1020.58
2022-09-21T08:45:38.127Z,1020.55
2022-09-21T08:46:38.192Z,1020.57
2022-09-21T08:47:38.131Z,1020.58
2022-09-21T08:48:38.095Z,1020.55
2022-09-21T08:49:38.087Z,1020.54
2022-09-21T08:50:38.082Z,1020.59
2022-09-21T08:51:38.074Z,1020.56
2022-09-21T08:52:38.052Z,1020.56
2022-09-21T08:53:38.034Z,1020.58
2022-09-21T08:54:38.026Z,1020.59
2022-09-21T08:55:38.017Z,1020.57
2022-09-21T08:57:03.440Z,1020.58
2022-09-21T08:57:38.988Z,1020.56
2022-09-21T08:58:37.990Z,1020.59
2022-09-21T08:59:37.968Z,1020.61
2022-09-21T09:00:38.117Z,1020.59
2022-09-21T09:01:38.021Z,1020.56
2022-09-21T09:02:37.932Z,1020.54
2022-09-21T09:03:40.328Z,1020.54
2022-09-21T09:04:37.911Z,1020.55
2022-09-21T09:05:37.901Z,1020.56
2022-09-21T09:06:37.901Z,1020.56
2022-09-21T09:07:37.875Z,1020.56
2022-09-21T09:08:37.864Z,1020.58
2022-09-21T09:09:37.855Z,1020.60
2022-09-21T09:10:37.844Z,1020.54
2022-09-21T09:11:37.846Z,1020.58
2022-09-21T09:12:37.828Z,1020.59
2022-09-21T09:13:37.804Z,1020.63
2022-09-21T09:14:37.797Z,1020.64
2022-09-21T09:15:37.783Z,1020.63
2022-09-21T09:16:37.950Z,1020.65
2022-09-21T09:17:37.756Z,1020.56
2022-09-21T09:18:42.740Z,1020.56
2022-09-21T09:19:38.761Z,1020.61
2022-09-21T09:20:37.785Z,1020.57
2022-09-21T09:21:37.736Z,1020.58
2022-09-21T09:22:37.747Z,1020.54
2022-09-21T09:23:37.706Z,1020.58
2022-09-21T09:24:37.680Z,1020.58
2022-09-21T09:25:37.669Z,1020.64
2022-09-21T09:26:37.678Z,1020.60
2022-09-21T09:27:37.647Z,1020.65
2022-09-21T09:28:37.635Z,1020.59
2022-09-21T09:29:37.625Z,1020.63
2022-09-21T09:30:37.646Z,1020.65
2022-09-21T09:31:37.684Z,1020.64
2022-09-21T09:32:37.611Z,1020.61
2022-09-21T09:33:37.586Z,1020.62
2022-09-21T09:34:37.565Z,1020.60
2022-09-21T09:35:37.577Z,1020.63
2022-09-21T09:36:57.306Z,1020.59
2022-09-21T09:37:38.533Z,1020.59
2022-09-21T09:38:37.541Z,1020.64
2022-09-21T09:39:37.519Z,1020.64
2022-09-21T09:40:37.550Z,1020.62
2022-09-21T09:41:37.507Z,1020.61
2022-09-21T09:42:37.476Z,1020.65
2022-09-21T09:43:37.471Z,1020.59
2022-09-21T09:44:37.457Z,1020.59
2022-09-21T09:45:37.442Z,1020.61
2022-09-21T09:46:37.513Z,1020.58
2022-09-21T09:47:37.427Z,1020.56
2022-09-21T09:48:37.408Z,1020.60
2022-09-21T09:49:37.400Z,1020.56
2022-09-21T09:50:37.385Z,1020.61
2022-09-21T09:51:37.419Z,1020.51
2022-09-21T09:52:37.369Z,1020.60
2022-09-21T09:53:37.355Z,1020.55
2022-09-21T09:54:37.343Z,1020.66
2022-09-21T09:55:37.325Z,1020.63
2022-09-21T09:56:37.333Z,1020.61
2022-09-21T09:57:37.308Z,1020.60
2022-09-21T09:58:37.290Z,1020.62
2022-09-21T09:59:37.283Z,1020.60
2022-09-21T10:00:37.272Z,1020.58
2022-09-21T10:01:37.354Z,1020.55
2022-09-21T10:02:37.255Z,1020.59
2022-09-21T10:03:37.244Z,1020.58
2022-09-21T10:04:37.308Z,1020.57
2022-09-21T10:05:37.219Z,1020.58
2022-09-21T10:06:37.230Z,1020.55
2022-09-21T10:07:37.218Z,1020.59
2022-09-21T10:08:37.185Z,1020.62
2022-09-21T10:09:37.172Z,1020.61
2022-09-21T10:10:37.150Z,1020.58
2022-09-21T10:11:37.167Z,1020.58
2022-09-21T10:12:37.138Z,1020.62
2022-09-21T10:13:37.129Z,1020.58
2022-09-21T10:14:37.110Z,1020.56
2022-09-21T10:15:37.144Z,1020.57
2022-09-21T10:16:37.120Z,1020.58
2022-09-21T10:17:37.081Z,1020.56
2022-09-21T10:18:37.064Z,1020.58
2022-09-21T10:19:37.052Z,1020.57
2022-09-21T10:20:37.045Z,1020.61
2022-09-21T10:21:37.075Z,1020.57
2022-09-21T10:22:37.020Z,1020.54
2022-09-21T10:23:37.028Z,1020.50
2022-09-21T10:24:36.998Z,1020.53
2022-09-21T10:25:40.195Z,1020.61
2022-09-21T10:26:36.999Z,1020.52
2022-09-21T10:27:36.966Z,1020.51
2022-09-21T10:28:36.946Z,1020.53
2022-09-21T10:29:36.939Z,1020.45
2022-09-21T10:30:36.929Z,1020.49
2022-09-21T10:31:37.040Z,1020.52
2022-09-21T10:32:36.907Z,1020.51
2022-09-21T10:33:36.954Z,1020.51
2022-09-21T10:34:36.886Z,1020.51
2022-09-21T10:35:36.909Z,1020.50
2022-09-21T10:36:36.869Z,1020.47
2022-09-21T10:37:36.850Z,1020.45
2022-09-21T10:38:36.831Z,1020.45
2022-09-21T10:39:36.839Z,1020.44
2022-09-21T10:40:36.857Z,1020.43
2022-09-21T10:41:36.820Z,1020.51
2022-09-21T10:42:36.789Z,1020.48
2022-09-21T10:43:41.210Z,1020.52
2022-09-21T10:44:37.764Z,1020.48
2022-09-21T10:45:36.767Z,1020.46
2022-09-21T10:46:36.887Z,1020.47
2022-09-21T10:47:36.731Z,1020.46
2022-09-21T10:48:36.720Z,1020.49
2022-09-21T10:49:36.719Z,1020.46
2022-09-21T10:50:36.699Z,1020.42
2022-09-21T10:51:36.701Z,1020.42
2022-09-21T10:52:36.682Z,1020.43
2022-09-21T10:53:36.665Z,1020.41
2022-09-21T10:54:36.656Z,1020.42
2022-09-21T10:55:40.752Z,1020.39
2022-09-21T10:56:36.653Z,1020.39
2022-09-21T10:57:36.617Z,1020.38
2022-09-21T10:58:36.609Z,1020.34
2022-09-21T10:59:36.608Z,1020.36
2022-09-21T11:00:36.578Z,1020.35
2022-09-21T11:01:36.660Z,1020.31
2022-09-21T11:02:36.689Z,1020.28
2022-09-21T11:03:36.546Z,1020.24
2022-09-21T11:04:36.542Z,1020.32
2022-09-21T11:05:36.536Z,1020.25
2022-09-21T11:06:36.534Z,1020.25
2022-09-21T11:07:36.508Z,1020.27
2022-09-21T11:08:36.496Z,1020.29
2022-09-21T11:09:36.481Z,1020.24
2022-09-21T11:10:36.469Z,1020.28
2022-09-21T11:11:36.499Z,1020.26
2022-09-21T11:12:36.448Z,1020.19
2022-09-21T11:13:36.438Z,1020.22
2022-09-21T11:14:36.441Z,1020.21
2022-09-21T11:15:36.453Z,1020.23
2022-09-21T11:16:36.413Z,1020.22
2022-09-21T11:17:36.398Z,1020.21
2022-09-21T11:18:36.389Z,1020.19
2022-09-21T11:19:36.364Z,1020.17
2022-09-21T11:20:36.360Z,1020.21
2022-09-21T11:21:36.356Z,1020.22
2022-09-21T11:22:36.344Z,1020.24
2022-09-21T11:23:36.324Z,1020.24
2022-09-21T11:24:36.310Z,1020.25
2022-09-21T11:25:36.295Z,1020.16
2022-09-21T11:26:36.333Z,1020.21
2022-09-21T11:27:36.356Z,1020.19
2022-09-21T11:28:36.255Z,1020.22
2022-09-21T11:29:36.255Z,1020.20
2022-09-21T11:30:36.318Z,1020.21
2022-09-21T11:31:36.242Z,1020.21
2022-09-21T11:32:36.214Z,1020.22
2022-09-21T11:33:36.208Z,1020.22
2022-09-21T11:34:36.197Z,1020.24
2022-09-21T11:35:36.178Z,1020.22
2022-09-21T11:36:36.188Z,1020.27
2022-09-21T11:37:36.153Z,1020.27
2022-09-21T11:38:38.662Z,1020.24
2022-09-21T11:39:37.135Z,1020.24
2022-09-21T11:40:36.159Z,1020.27
2022-09-21T11:41:36.133Z,1020.27
2022-09-21T11:42:36.105Z,1020.28
2022-09-21T11:43:36.117Z,1020.29
2022-09-21T11:44:36.075Z,1020.32
2022-09-21T11:45:36.067Z,1020.29
2022-09-21T11:46:36.139Z,1020.31
2022-09-21T11:47:36.045Z,1020.27
2022-09-21T11:48:36.029Z,1020.24
2022-09-21T11:49:36.058Z,1020.18
2022-09-21T11:50:36.009Z,1020.25
2022-09-21T11:51:36.025Z,1020.24
2022-09-21T11:52:35.990Z,1020.17
2022-09-21T11:53:35.978Z,1020.16
2022-09-21T11:54:35.966Z,1020.21
2022-09-21T11:55:35.959Z,1020.14
2022-09-21T11:56:35.966Z,1020.16
2022-09-21T11:57:35.947Z,1020.20
2022-09-21T11:58:35.921Z,1020.15
2022-09-21T11:59:35.925Z,1020.11
2022-09-21T12:00:35.893Z,1020.10
2022-09-21T12:01:35.903Z,1020.10
2022-09-21T12:02:36.013Z,1020.09
2022-09-21T12:03:35.862Z,1020.09
2022-09-21T12:04:35.851Z,1020.02
2022-09-21T12:05:35.837Z,1019.99
2022-09-21T12:06:35.847Z,1019.98
2022-09-21T12:07:35.818Z,1019.97